Hagar Shores, Michigan
Current Conditions -  °F | °C
As of 11:53 AM on Thursday 23 Oct 2014 (Local Time) from KBEH Reporting Station
Clear Clear  
Wind Chill: 50°   Ceiling: Unl
Heat Index: 50°   Visibility: 9mi
Dew Point: 43°   Wind: 5mph
Humidity: 77%   Direction: NA
Pressure: 30.23"   Gusts: NA
Location:  42.19°N, 86.31°W
Report Text: KBEH 231553Z AUTO VRB04KT 9SM CLR 10/06 A3023 RMK AO2 SLP239 T01000061
Loading
Personal Weather Stations






























Interactive Weather Map
Tropical Storm Tracking
New forecast layout! Learn more

10-Day Weather Forecast

Advertisements
Track Severe Weather on mobile